sensor_id;sensor_type;location;lat;lon;timestamp;P1;durP1;ratioP1;P2;durP2;ratioP2
72791;SDS011;60907;53.268;8.764;2023-03-12T00:01:57;4.13;;;1.40;;
72791;SDS011;60907;53.268;8.764;2023-03-12T00:04:23;4.13;;;1.83;;
72791;SDS011;60907;53.268;8.764;2023-03-12T00:06:49;2.97;;;1.33;;
72791;SDS011;60907;53.268;8.764;2023-03-12T00:09:15;4.82;;;1.90;;
72791;SDS011;60907;53.268;8.764;2023-03-12T00:11:40;3.85;;;1.60;;
72791;SDS011;60907;53.268;8.764;2023-03-12T00:14:06;3.45;;;1.48;;
72791;SDS011;60907;53.268;8.764;2023-03-12T00:16:31;6.05;;;1.85;;
72791;SDS011;60907;53.268;8.764;2023-03-12T00:18:57;3.05;;;1.67;;
72791;SDS011;60907;53.268;8.764;2023-03-12T00:21:23;5.28;;;1.50;;
72791;SDS011;60907;53.268;8.764;2023-03-12T00:23:48;4.55;;;1.80;;
72791;SDS011;60907;53.268;8.764;2023-03-12T00:26:14;3.65;;;1.98;;
72791;SDS011;60907;53.268;8.764;2023-03-12T00:28:40;5.70;;;2.17;;
72791;SDS011;60907;53.268;8.764;2023-03-12T00:31:16;3.22;;;1.75;;
72791;SDS011;60907;53.268;8.764;2023-03-12T00:33:42;6.18;;;1.63;;
72791;SDS011;60907;53.268;8.764;2023-03-12T00:36:07;3.45;;;1.48;;
72791;SDS011;60907;53.268;8.764;2023-03-12T00:38:33;3.85;;;1.70;;
72791;SDS011;60907;53.268;8.764;2023-03-12T00:40:58;3.78;;;1.65;;
72791;SDS011;60907;53.268;8.764;2023-03-12T00:43:24;3.35;;;1.55;;
72791;SDS011;60907;53.268;8.764;2023-03-12T00:45:49;3.90;;;1.90;;
72791;SDS011;60907;53.268;8.764;2023-03-12T00:48:14;4.00;;;1.80;;
72791;SDS011;60907;53.268;8.764;2023-03-12T00:50:40;6.50;;;2.10;;
72791;SDS011;60907;53.268;8.764;2023-03-12T00:53:05;5.45;;;1.92;;
72791;SDS011;60907;53.268;8.764;2023-03-12T00:55:32;5.50;;;1.95;;
72791;SDS011;60907;53.268;8.764;2023-03-12T00:57:57;5.50;;;1.95;;
72791;SDS011;60907;53.268;8.764;2023-03-12T01:00:23;3.22;;;2.00;;
72791;SDS011;60907;53.268;8.764;2023-03-12T01:02:48;4.47;;;1.60;;
72791;SDS011;60907;53.268;8.764;2023-03-12T01:05:14;3.60;;;1.60;;
72791;SDS011;60907;53.268;8.764;2023-03-12T01:07:40;5.60;;;1.55;;
72791;SDS011;60907;53.268;8.764;2023-03-12T01:10:06;7.57;;;2.30;;
72791;SDS011;60907;53.268;8.764;2023-03-12T01:12:32;4.35;;;1.77;;
72791;SDS011;60907;53.268;8.764;2023-03-12T01:14:57;6.10;;;1.83;;
72791;SDS011;60907;53.268;8.764;2023-03-12T01:17:23;4.28;;;1.50;;
72791;SDS011;60907;53.268;8.764;2023-03-12T01:19:48;2.50;;;1.23;;
72791;SDS011;60907;53.268;8.764;2023-03-12T01:22:14;3.70;;;1.60;;
72791;SDS011;60907;53.268;8.764;2023-03-12T01:24:39;3.72;;;2.45;;
72791;SDS011;60907;53.268;8.764;2023-03-12T01:27:05;5.22;;;1.95;;
72791;SDS011;60907;53.268;8.764;2023-03-12T01:29:30;5.00;;;2.22;;
72791;SDS011;60907;53.268;8.764;2023-03-12T01:31:56;3.97;;;2.08;;
72791;SDS011;60907;53.268;8.764;2023-03-12T01:34:21;6.65;;;1.52;;
72791;SDS011;60907;53.268;8.764;2023-03-12T01:36:46;4.20;;;1.85;;
72791;SDS011;60907;53.268;8.764;2023-03-12T01:39:12;5.63;;;1.95;;
72791;SDS011;60907;53.268;8.764;2023-03-12T01:41:38;6.88;;;1.83;;
72791;SDS011;60907;53.268;8.764;2023-03-12T01:44:05;3.90;;;1.83;;
72791;SDS011;60907;53.268;8.764;2023-03-12T01:46:38;5.85;;;1.63;;
72791;SDS011;60907;53.268;8.764;2023-03-12T01:49:11;4.45;;;1.77;;
72791;SDS011;60907;53.268;8.764;2023-03-12T01:52:01;6.20;;;2.10;;
72791;SDS011;60907;53.268;8.764;2023-03-12T01:54:30;5.28;;;1.58;;
72791;SDS011;60907;53.268;8.764;2023-03-12T01:56:58;4.55;;;1.58;;
72791;SDS011;60907;53.268;8.764;2023-03-12T01:59:29;4.40;;;1.60;;
72791;SDS011;60907;53.268;8.764;2023-03-12T02:01:56;5.72;;;2.20;;
72791;SDS011;60907;53.268;8.764;2023-03-12T02:04:22;3.33;;;1.42;;
72791;SDS011;60907;53.268;8.764;2023-03-12T02:06:57;4.43;;;1.83;;
72791;SDS011;60907;53.268;8.764;2023-03-12T02:09:27;5.75;;;1.85;;
72791;SDS011;60907;53.268;8.764;2023-03-12T02:11:54;5.05;;;1.83;;
72791;SDS011;60907;53.268;8.764;2023-03-12T02:14:19;3.42;;;1.70;;
72791;SDS011;60907;53.268;8.764;2023-03-12T02:16:45;3.15;;;1.65;;
72791;SDS011;60907;53.268;8.764;2023-03-12T02:19:14;3.40;;;1.50;;
72791;SDS011;60907;53.268;8.764;2023-03-12T02:22:05;2.58;;;1.30;;
72791;SDS011;60907;53.268;8.764;2023-03-12T02:27:05;2.55;;;1.30;;
72791;SDS011;60907;53.268;8.764;2023-03-12T02:29:31;4.20;;;1.73;;
72791;SDS011;60907;53.268;8.764;2023-03-12T02:31:57;4.50;;;1.52;;
72791;SDS011;60907;53.268;8.764;2023-03-12T02:34:24;2.75;;;1.55;;
72791;SDS011;60907;53.268;8.764;2023-03-12T02:36:50;7.97;;;1.90;;
72791;SDS011;60907;53.268;8.764;2023-03-12T02:39:15;2.92;;;1.50;;
72791;SDS011;60907;53.268;8.764;2023-03-12T02:41:42;4.13;;;1.40;;
72791;SDS011;60907;53.268;8.764;2023-03-12T02:44:15;4.32;;;1.65;;
72791;SDS011;60907;53.268;8.764;2023-03-12T02:46:47;6.32;;;1.85;;
72791;SDS011;60907;53.268;8.764;2023-03-12T02:49:18;4.35;;;1.75;;
72791;SDS011;60907;53.268;8.764;2023-03-12T02:51:45;4.85;;;1.73;;
72791;SDS011;60907;53.268;8.764;2023-03-12T02:54:11;5.35;;;1.60;;
72791;SDS011;60907;53.268;8.764;2023-03-12T02:56:38;7.78;;;1.73;;
72791;SDS011;60907;53.268;8.764;2023-03-12T02:59:05;4.63;;;1.83;;
72791;SDS011;60907;53.268;8.764;2023-03-12T03:01:30;3.80;;;1.63;;
72791;SDS011;60907;53.268;8.764;2023-03-12T03:03:59;5.78;;;1.48;;
72791;SDS011;60907;53.268;8.764;2023-03-12T03:06:25;4.15;;;1.88;;
72791;SDS011;60907;53.268;8.764;2023-03-12T03:08:51;3.78;;;1.58;;
72791;SDS011;60907;53.268;8.764;2023-03-12T03:11:16;6.97;;;2.22;;
72791;SDS011;60907;53.268;8.764;2023-03-12T03:13:42;4.15;;;2.15;;
72791;SDS011;60907;53.268;8.764;2023-03-12T03:16:08;5.78;;;1.92;;
72791;SDS011;60907;53.268;8.764;2023-03-12T03:18:34;4.13;;;1.83;;
72791;SDS011;60907;53.268;8.764;2023-03-12T03:21:00;4.10;;;2.22;;
72791;SDS011;60907;53.268;8.764;2023-03-12T03:23:27;4.85;;;1.90;;
72791;SDS011;60907;53.268;8.764;2023-03-12T03:25:52;3.15;;;1.63;;
72791;SDS011;60907;53.268;8.764;2023-03-12T03:28:19;8.82;;;2.10;;
72791;SDS011;60907;53.268;8.764;2023-03-12T03:30:45;5.45;;;1.60;;
72791;SDS011;60907;53.268;8.764;2023-03-12T03:33:10;5.88;;;2.08;;
72791;SDS011;60907;53.268;8.764;2023-03-12T03:35:36;3.03;;;1.60;;
72791;SDS011;60907;53.268;8.764;2023-03-12T03:38:01;4.73;;;1.77;;
72791;SDS011;60907;53.268;8.764;2023-03-12T03:40:27;3.88;;;1.70;;
72791;SDS011;60907;53.268;8.764;2023-03-12T03:42:53;2.92;;;1.65;;
72791;SDS011;60907;53.268;8.764;2023-03-12T03:45:19;3.15;;;1.75;;
72791;SDS011;60907;53.268;8.764;2023-03-12T03:47:44;7.90;;;1.60;;
72791;SDS011;60907;53.268;8.764;2023-03-12T03:50:10;3.92;;;2.22;;
72791;SDS011;60907;53.268;8.764;2023-03-12T03:52:36;4.45;;;1.98;;
72791;SDS011;60907;53.268;8.764;2023-03-12T03:55:02;3.72;;;2.20;;
72791;SDS011;60907;53.268;8.764;2023-03-12T03:57:28;5.68;;;2.38;;
72791;SDS011;60907;53.268;8.764;2023-03-12T03:59:53;2.28;;;1.70;;
72791;SDS011;60907;53.268;8.764;2023-03-12T04:02:19;3.50;;;1.98;;
72791;SDS011;60907;53.268;8.764;2023-03-12T04:04:45;3.10;;;2.30;;
72791;SDS011;60907;53.268;8.764;2023-03-12T04:07:11;4.32;;;2.38;;
72791;SDS011;60907;53.268;8.764;2023-03-12T04:09:36;5.30;;;2.50;;
72791;SDS011;60907;53.268;8.764;2023-03-12T04:12:01;6.65;;;2.72;;
72791;SDS011;60907;53.268;8.764;2023-03-12T04:14:27;3.80;;;2.00;;
72791;SDS011;60907;53.268;8.764;2023-03-12T04:16:52;3.87;;;1.97;;
72791;SDS011;60907;53.268;8.764;2023-03-12T04:19:18;5.40;;;1.90;;
72791;SDS011;60907;53.268;8.764;2023-03-12T04:21:44;5.03;;;2.08;;
72791;SDS011;60907;53.268;8.764;2023-03-12T04:24:12;4.68;;;1.63;;
72791;SDS011;60907;53.268;8.764;2023-03-12T04:26:38;2.58;;;1.80;;
72791;SDS011;60907;53.268;8.764;2023-03-12T04:29:03;4.18;;;2.10;;
72791;SDS011;60907;53.268;8.764;2023-03-12T04:31:29;4.07;;;2.55;;
72791;SDS011;60907;53.268;8.764;2023-03-12T04:33:54;5.17;;;2.57;;
72791;SDS011;60907;53.268;8.764;2023-03-12T04:36:19;7.67;;;2.33;;
72791;SDS011;60907;53.268;8.764;2023-03-12T04:38:45;6.18;;;2.70;;
72791;SDS011;60907;53.268;8.764;2023-03-12T04:41:11;6.03;;;2.87;;
72791;SDS011;60907;53.268;8.764;2023-03-12T04:43:37;6.07;;;3.33;;
72791;SDS011;60907;53.268;8.764;2023-03-12T04:46:03;4.85;;;2.58;;
72791;SDS011;60907;53.268;8.764;2023-03-12T04:48:29;7.43;;;3.38;;
72791;SDS011;60907;53.268;8.764;2023-03-12T04:50:54;5.15;;;3.05;;
72791;SDS011;60907;53.268;8.764;2023-03-12T04:53:20;4.25;;;2.60;;
72791;SDS011;60907;53.268;8.764;2023-03-12T04:55:45;3.97;;;2.40;;
72791;SDS011;60907;53.268;8.764;2023-03-12T04:58:11;5.93;;;2.35;;
72791;SDS011;60907;53.268;8.764;2023-03-12T05:00:38;5.95;;;3.45;;
72791;SDS011;60907;53.268;8.764;2023-03-12T05:03:03;5.25;;;2.53;;
72791;SDS011;60907;53.268;8.764;2023-03-12T05:05:29;5.25;;;2.80;;
72791;SDS011;60907;53.268;8.764;2023-03-12T05:07:54;5.57;;;2.83;;
72791;SDS011;60907;53.268;8.764;2023-03-12T05:10:20;6.35;;;2.97;;
72791;SDS011;60907;53.268;8.764;2023-03-12T05:12:45;5.43;;;3.10;;
72791;SDS011;60907;53.268;8.764;2023-03-12T05:15:10;5.77;;;3.07;;
72791;SDS011;60907;53.268;8.764;2023-03-12T05:17:36;5.78;;;3.65;;
72791;SDS011;60907;53.268;8.764;2023-03-12T05:20:01;7.13;;;3.37;;
72791;SDS011;60907;53.268;8.764;2023-03-12T05:22:29;4.90;;;3.42;;
72791;SDS011;60907;53.268;8.764;2023-03-12T05:24:54;5.22;;;3.20;;
72791;SDS011;60907;53.268;8.764;2023-03-12T05:27:20;7.47;;;3.47;;
72791;SDS011;60907;53.268;8.764;2023-03-12T05:29:45;5.13;;;3.47;;
72791;SDS011;60907;53.268;8.764;2023-03-12T05:32:10;4.07;;;3.03;;
72791;SDS011;60907;53.268;8.764;2023-03-12T05:34:36;6.53;;;3.07;;
72791;SDS011;60907;53.268;8.764;2023-03-12T05:37:01;5.35;;;2.65;;
72791;SDS011;60907;53.268;8.764;2023-03-12T05:39:26;6.77;;;2.80;;
72791;SDS011;60907;53.268;8.764;2023-03-12T05:41:52;7.55;;;2.85;;
72791;SDS011;60907;53.268;8.764;2023-03-12T05:44:21;5.88;;;2.75;;
72791;SDS011;60907;53.268;8.764;2023-03-12T05:46:47;6.03;;;2.78;;
72791;SDS011;60907;53.268;8.764;2023-03-12T05:49:13;5.07;;;3.05;;
72791;SDS011;60907;53.268;8.764;2023-03-12T05:51:38;6.70;;;3.30;;
72791;SDS011;60907;53.268;8.764;2023-03-12T05:54:03;6.93;;;3.03;;
72791;SDS011;60907;53.268;8.764;2023-03-12T05:56:29;5.53;;;2.92;;
72791;SDS011;60907;53.268;8.764;2023-03-12T05:58:54;5.63;;;2.83;;
72791;SDS011;60907;53.268;8.764;2023-03-12T06:01:21;6.80;;;2.80;;
72791;SDS011;60907;53.268;8.764;2023-03-12T06:03:48;6.72;;;3.22;;
72791;SDS011;60907;53.268;8.764;2023-03-12T06:06:13;6.38;;;3.13;;
72791;SDS011;60907;53.268;8.764;2023-03-12T06:08:40;4.60;;;3.40;;
72791;SDS011;60907;53.268;8.764;2023-03-12T06:11:06;8.48;;;3.80;;
72791;SDS011;60907;53.268;8.764;2023-03-12T06:13:32;5.20;;;3.35;;
72791;SDS011;60907;53.268;8.764;2023-03-12T06:16:01;4.53;;;3.15;;
72791;SDS011;60907;53.268;8.764;2023-03-12T06:18:28;4.75;;;3.05;;
72791;SDS011;60907;53.268;8.764;2023-03-12T06:20:54;6.10;;;3.80;;
72791;SDS011;60907;53.268;8.764;2023-03-12T06:23:19;9.23;;;3.37;;
72791;SDS011;60907;53.268;8.764;2023-03-12T06:25:45;8.07;;;3.47;;
72791;SDS011;60907;53.268;8.764;2023-03-12T06:28:10;5.80;;;3.08;;
72791;SDS011;60907;53.268;8.764;2023-03-12T06:30:36;3.60;;;2.63;;
72791;SDS011;60907;53.268;8.764;2023-03-12T06:33:01;7.70;;;2.60;;
72791;SDS011;60907;53.268;8.764;2023-03-12T06:35:28;4.63;;;2.83;;
72791;SDS011;60907;53.268;8.764;2023-03-12T06:37:54;6.80;;;3.03;;
72791;SDS011;60907;53.268;8.764;2023-03-12T06:40:19;6.17;;;3.73;;
72791;SDS011;60907;53.268;8.764;2023-03-12T06:42:44;6.47;;;2.78;;
72791;SDS011;60907;53.268;8.764;2023-03-12T06:45:10;10.10;;;3.10;;
72791;SDS011;60907;53.268;8.764;2023-03-12T06:47:35;5.50;;;2.90;;
72791;SDS011;60907;53.268;8.764;2023-03-12T06:50:01;5.37;;;2.97;;
72791;SDS011;60907;53.268;8.764;2023-03-12T06:52:26;4.60;;;2.88;;
72791;SDS011;60907;53.268;8.764;2023-03-12T06:54:52;5.60;;;2.65;;
72791;SDS011;60907;53.268;8.764;2023-03-12T06:57:17;5.57;;;3.33;;
72791;SDS011;60907;53.268;8.764;2023-03-12T06:59:42;4.80;;;2.75;;
72791;SDS011;60907;53.268;8.764;2023-03-12T07:02:11;5.28;;;2.33;;
72791;SDS011;60907;53.268;8.764;2023-03-12T07:04:36;3.97;;;2.55;;
72791;SDS011;60907;53.268;8.764;2023-03-12T07:07:02;5.20;;;3.13;;
72791;SDS011;60907;53.268;8.764;2023-03-12T07:09:28;7.70;;;2.63;;
72791;SDS011;60907;53.268;8.764;2023-03-12T07:11:54;5.78;;;2.63;;
72791;SDS011;60907;53.268;8.764;2023-03-12T07:14:19;2.97;;;2.13;;
72791;SDS011;60907;53.268;8.764;2023-03-12T07:16:45;3.88;;;2.60;;
72791;SDS011;60907;53.268;8.764;2023-03-12T07:19:11;7.20;;;3.10;;
72791;SDS011;60907;53.268;8.764;2023-03-12T07:21:36;3.90;;;2.70;;
72791;SDS011;60907;53.268;8.764;2023-03-12T07:24:02;3.80;;;2.20;;
72791;SDS011;60907;53.268;8.764;2023-03-12T07:26:31;5.45;;;2.38;;
72791;SDS011;60907;53.268;8.764;2023-03-12T07:28:57;8.15;;;3.42;;
72791;SDS011;60907;53.268;8.764;2023-03-12T07:31:22;5.33;;;3.20;;
72791;SDS011;60907;53.268;8.764;2023-03-12T07:33:47;4.37;;;3.10;;
72791;SDS011;60907;53.268;8.764;2023-03-12T07:36:13;5.60;;;3.15;;
72791;SDS011;60907;53.268;8.764;2023-03-12T07:38:38;6.88;;;3.80;;
72791;SDS011;60907;53.268;8.764;2023-03-12T07:41:04;6.32;;;3.58;;
72791;SDS011;60907;53.268;8.764;2023-03-12T07:43:29;8.77;;;4.85;;
72791;SDS011;60907;53.268;8.764;2023-03-12T07:45:55;4.63;;;3.03;;
72791;SDS011;60907;53.268;8.764;2023-03-12T07:48:20;5.13;;;2.95;;
72791;SDS011;60907;53.268;8.764;2023-03-12T07:50:46;4.57;;;3.03;;
72791;SDS011;60907;53.268;8.764;2023-03-12T07:53:12;5.63;;;3.30;;
72791;SDS011;60907;53.268;8.764;2023-03-12T07:55:37;4.13;;;2.70;;
72791;SDS011;60907;53.268;8.764;2023-03-12T07:58:03;5.00;;;2.90;;
72791;SDS011;60907;53.268;8.764;2023-03-12T08:00:28;6.25;;;3.08;;
72791;SDS011;60907;53.268;8.764;2023-03-12T08:02:54;5.05;;;2.72;;
72791;SDS011;60907;53.268;8.764;2023-03-12T08:05:20;5.00;;;2.70;;
72791;SDS011;60907;53.268;8.764;2023-03-12T08:07:49;6.45;;;3.28;;
72791;SDS011;60907;53.268;8.764;2023-03-12T08:10:19;5.10;;;3.42;;
72791;SDS011;60907;53.268;8.764;2023-03-12T08:12:44;5.88;;;3.72;;
72791;SDS011;60907;53.268;8.764;2023-03-12T08:15:10;5.18;;;2.97;;
72791;SDS011;60907;53.268;8.764;2023-03-12T08:17:37;5.45;;;3.30;;
72791;SDS011;60907;53.268;8.764;2023-03-12T08:20:03;9.25;;;6.90;;
72791;SDS011;60907;53.268;8.764;2023-03-12T08:22:30;7.82;;;5.10;;
72791;SDS011;60907;53.268;8.764;2023-03-12T08:24:56;9.07;;;5.30;;
72791;SDS011;60907;53.268;8.764;2023-03-12T08:27:21;7.22;;;4.13;;
72791;SDS011;60907;53.268;8.764;2023-03-12T08:29:47;5.60;;;4.07;;
72791;SDS011;60907;53.268;8.764;2023-03-12T08:32:12;7.60;;;3.60;;
72791;SDS011;60907;53.268;8.764;2023-03-12T08:34:38;7.72;;;3.60;;
72791;SDS011;60907;53.268;8.764;2023-03-12T08:37:03;10.02;;;3.72;;
72791;SDS011;60907;53.268;8.764;2023-03-12T08:39:30;6.25;;;3.88;;
72791;SDS011;60907;53.268;8.764;2023-03-12T08:41:55;5.80;;;3.38;;
72791;SDS011;60907;53.268;8.764;2023-03-12T08:44:21;6.63;;;3.55;;
72791;SDS011;60907;53.268;8.764;2023-03-12T08:46:47;5.00;;;3.88;;
72791;SDS011;60907;53.268;8.764;2023-03-12T08:49:12;8.93;;;3.53;;
72791;SDS011;60907;53.268;8.764;2023-03-12T08:51:38;6.95;;;3.80;;
72791;SDS011;60907;53.268;8.764;2023-03-12T08:54:03;7.70;;;3.67;;
72791;SDS011;60907;53.268;8.764;2023-03-12T08:56:29;6.22;;;3.42;;
72791;SDS011;60907;53.268;8.764;2023-03-12T08:58:56;6.93;;;4.57;;
72791;SDS011;60907;53.268;8.764;2023-03-12T09:01:22;7.57;;;3.92;;
72791;SDS011;60907;53.268;8.764;2023-03-12T09:03:48;5.47;;;3.60;;
72791;SDS011;60907;53.268;8.764;2023-03-12T09:06:15;7.00;;;3.22;;
72791;SDS011;60907;53.268;8.764;2023-03-12T09:08:41;4.53;;;3.17;;
72791;SDS011;60907;53.268;8.764;2023-03-12T09:11:08;6.82;;;3.40;;
72791;SDS011;60907;53.268;8.764;2023-03-12T09:13:34;7.93;;;5.07;;
72791;SDS011;60907;53.268;8.764;2023-03-12T09:16:00;4.75;;;3.08;;
72791;SDS011;60907;53.268;8.764;2023-03-12T09:18:27;7.53;;;3.88;;
72791;SDS011;60907;53.268;8.764;2023-03-12T09:20:53;9.50;;;3.17;;
72791;SDS011;60907;53.268;8.764;2023-03-12T09:23:19;4.40;;;3.17;;
72791;SDS011;60907;53.268;8.764;2023-03-12T09:25:45;5.65;;;3.35;;
72791;SDS011;60907;53.268;8.764;2023-03-12T09:28:11;5.80;;;3.05;;
72791;SDS011;60907;53.268;8.764;2023-03-12T09:30:36;7.07;;;3.47;;
72791;SDS011;60907;53.268;8.764;2023-03-12T09:33:02;4.82;;;3.58;;
72791;SDS011;60907;53.268;8.764;2023-03-12T09:35:27;8.27;;;2.97;;
72791;SDS011;60907;53.268;8.764;2023-03-12T09:37:55;7.35;;;3.72;;
72791;SDS011;60907;53.268;8.764;2023-03-12T09:40:21;5.10;;;3.30;;
72791;SDS011;60907;53.268;8.764;2023-03-12T09:42:49;5.43;;;3.38;;
72791;SDS011;60907;53.268;8.764;2023-03-12T09:45:25;7.05;;;2.47;;
72791;SDS011;60907;53.268;8.764;2023-03-12T09:48:00;4.85;;;2.85;;
72791;SDS011;60907;53.268;8.764;2023-03-12T09:50:31;5.15;;;2.63;;
72791;SDS011;60907;53.268;8.764;2023-03-12T09:53:03;7.35;;;3.45;;
72791;SDS011;60907;53.268;8.764;2023-03-12T09:55:39;5.78;;;2.83;;
72791;SDS011;60907;53.268;8.764;2023-03-12T09:58:17;4.55;;;2.92;;
72791;SDS011;60907;53.268;8.764;2023-03-12T10:00:44;4.85;;;2.55;;
72791;SDS011;60907;53.268;8.764;2023-03-12T10:08:11;7.78;;;4.15;;
72791;SDS011;60907;53.268;8.764;2023-03-12T10:10:45;6.97;;;3.00;;
72791;SDS011;60907;53.268;8.764;2023-03-12T10:18:35;4.72;;;2.83;;
72791;SDS011;60907;53.268;8.764;2023-03-12T10:21:16;3.90;;;2.83;;
72791;SDS011;60907;53.268;8.764;2023-03-12T10:24:05;5.68;;;3.25;;
72791;SDS011;60907;53.268;8.764;2023-03-12T10:26:37;5.20;;;2.88;;
72791;SDS011;60907;53.268;8.764;2023-03-12T10:29:38;4.60;;;2.67;;
72791;SDS011;60907;53.268;8.764;2023-03-12T10:32:11;7.18;;;2.53;;
72791;SDS011;60907;53.268;8.764;2023-03-12T10:34:50;4.32;;;2.60;;
72791;SDS011;60907;53.268;8.764;2023-03-12T10:37:30;6.43;;;3.03;;
72791;SDS011;60907;53.268;8.764;2023-03-12T10:40:05;3.88;;;2.70;;
72791;SDS011;60907;53.268;8.764;2023-03-12T10:42:30;5.38;;;3.10;;
72791;SDS011;60907;53.268;8.764;2023-03-12T10:45:12;5.13;;;2.70;;
72791;SDS011;60907;53.268;8.764;2023-03-12T10:48:04;4.78;;;2.40;;
72791;SDS011;60907;53.268;8.764;2023-03-12T10:50:34;6.65;;;2.45;;
72791;SDS011;60907;53.268;8.764;2023-03-12T10:56:10;9.05;;;2.90;;
72791;SDS011;60907;53.268;8.764;2023-03-12T10:58:47;5.40;;;2.70;;
72791;SDS011;60907;53.268;8.764;2023-03-12T11:01:20;4.43;;;2.75;;
72791;SDS011;60907;53.268;8.764;2023-03-12T11:03:47;5.00;;;2.75;;
72791;SDS011;60907;53.268;8.764;2023-03-12T11:06:27;3.55;;;2.53;;
72791;SDS011;60907;53.268;8.764;2023-03-12T11:09:14;5.38;;;2.70;;
72791;SDS011;60907;53.268;8.764;2023-03-12T11:11:43;10.70;;;3.10;;
72791;SDS011;60907;53.268;8.764;2023-03-12T11:14:17;4.45;;;3.40;;
72791;SDS011;60907;53.268;8.764;2023-03-12T11:16:43;5.25;;;2.83;;
72791;SDS011;60907;53.268;8.764;2023-03-12T11:19:11;6.73;;;3.23;;
72791;SDS011;60907;53.268;8.764;2023-03-12T11:21:38;6.22;;;2.60;;
72791;SDS011;60907;53.268;8.764;2023-03-12T11:34:57;4.80;;;2.60;;
72791;SDS011;60907;53.268;8.764;2023-03-12T11:47:46;3.20;;;1.83;;
72791;SDS011;60907;53.268;8.764;2023-03-12T11:50:56;4.95;;;2.03;;
72791;SDS011;60907;53.268;8.764;2023-03-12T11:56:40;7.07;;;2.20;;
72791;SDS011;60907;53.268;8.764;2023-03-12T12:02:11;3.67;;;1.83;;
72791;SDS011;60907;53.268;8.764;2023-03-12T12:05:16;8.32;;;2.65;;
72791;SDS011;60907;53.268;8.764;2023-03-12T12:13:13;5.07;;;2.27;;
72791;SDS011;60907;53.268;8.764;2023-03-12T12:15:43;5.53;;;2.13;;
72791;SDS011;60907;53.268;8.764;2023-03-12T12:24:13;6.97;;;3.22;;
72791;SDS011;60907;53.268;8.764;2023-03-12T12:32:19;4.57;;;2.47;;
72791;SDS011;60907;53.268;8.764;2023-03-12T12:41:11;7.65;;;3.80;;
72791;SDS011;60907;53.268;8.764;2023-03-12T12:43:40;9.20;;;3.88;;
72791;SDS011;60907;53.268;8.764;2023-03-12T12:46:33;8.93;;;4.78;;
72791;SDS011;60907;53.268;8.764;2023-03-12T12:49:13;7.90;;;4.30;;
72791;SDS011;60907;53.268;8.764;2023-03-12T12:51:52;7.25;;;3.95;;
72791;SDS011;60907;53.268;8.764;2023-03-12T12:54:32;7.15;;;3.78;;
72791;SDS011;60907;53.268;8.764;2023-03-12T12:57:11;7.22;;;4.28;;
72791;SDS011;60907;53.268;8.764;2023-03-12T13:02:36;6.53;;;4.30;;
72791;SDS011;60907;53.268;8.764;2023-03-12T13:05:03;7.18;;;4.55;;
72791;SDS011;60907;53.268;8.764;2023-03-12T13:07:45;7.75;;;4.13;;
72791;SDS011;60907;53.268;8.764;2023-03-12T13:13:17;7.20;;;4.43;;
72791;SDS011;60907;53.268;8.764;2023-03-12T13:15:44;7.13;;;4.13;;
72791;SDS011;60907;53.268;8.764;2023-03-12T13:33:52;8.73;;;4.85;;
72791;SDS011;60907;53.268;8.764;2023-03-12T13:36:20;6.70;;;4.40;;
72791;SDS011;60907;53.268;8.764;2023-03-12T13:41:31;10.23;;;4.70;;
72791;SDS011;60907;53.268;8.764;2023-03-12T13:43:58;6.65;;;4.03;;
72791;SDS011;60907;53.268;8.764;2023-03-12T13:46:34;8.90;;;4.50;;
72791;SDS011;60907;53.268;8.764;2023-03-12T13:49:02;6.43;;;4.30;;
72791;SDS011;60907;53.268;8.764;2023-03-12T13:51:30;7.10;;;4.25;;
72791;SDS011;60907;53.268;8.764;2023-03-12T13:53:59;7.00;;;4.43;;
72791;SDS011;60907;53.268;8.764;2023-03-12T13:56:27;8.52;;;4.88;;
72791;SDS011;60907;53.268;8.764;2023-03-12T13:58:55;7.38;;;4.38;;
72791;SDS011;60907;53.268;8.764;2023-03-12T14:01:25;11.43;;;4.95;;
72791;SDS011;60907;53.268;8.764;2023-03-12T14:03:54;11.80;;;5.82;;
72791;SDS011;60907;53.268;8.764;2023-03-12T14:06:22;6.72;;;4.38;;
72791;SDS011;60907;53.268;8.764;2023-03-12T14:14:47;7.68;;;4.75;;
72791;SDS011;60907;53.268;8.764;2023-03-12T14:16:56;10.50;;;5.00;;
72791;SDS011;60907;53.268;8.764;2023-03-12T14:19:25;9.38;;;4.80;;
72791;SDS011;60907;53.268;8.764;2023-03-12T14:21:52;9.13;;;5.65;;
72791;SDS011;60907;53.268;8.764;2023-03-12T14:24:29;10.55;;;6.28;;
72791;SDS011;60907;53.268;8.764;2023-03-12T14:26:57;10.07;;;5.38;;
72791;SDS011;60907;53.268;8.764;2023-03-12T14:29:30;13.75;;;6.20;;
72791;SDS011;60907;53.268;8.764;2023-03-12T14:32:26;10.00;;;5.40;;
72791;SDS011;60907;53.268;8.764;2023-03-12T14:34:54;10.57;;;5.57;;
72791;SDS011;60907;53.268;8.764;2023-03-12T14:37:24;12.38;;;6.95;;
72791;SDS011;60907;53.268;8.764;2023-03-12T14:39:55;12.15;;;6.60;;
72791;SDS011;60907;53.268;8.764;2023-03-12T14:42:30;11.13;;;5.90;;
72791;SDS011;60907;53.268;8.764;2023-03-12T14:47:26;15.10;;;7.43;;
72791;SDS011;60907;53.268;8.764;2023-03-12T14:49:53;15.85;;;7.93;;
72791;SDS011;60907;53.268;8.764;2023-03-12T14:52:26;18.98;;;8.32;;
72791;SDS011;60907;53.268;8.764;2023-03-12T14:54:54;16.08;;;8.63;;
72791;SDS011;60907;53.268;8.764;2023-03-12T14:57:22;17.50;;;8.73;;
72791;SDS011;60907;53.268;8.764;2023-03-12T14:59:52;23.55;;;9.18;;
72791;SDS011;60907;53.268;8.764;2023-03-12T15:02:19;18.55;;;8.32;;
72791;SDS011;60907;53.268;8.764;2023-03-12T15:04:46;22.08;;;11.07;;
72791;SDS011;60907;53.268;8.764;2023-03-12T15:07:14;21.75;;;9.50;;
72791;SDS011;60907;53.268;8.764;2023-03-12T15:09:43;21.42;;;10.35;;
72791;SDS011;60907;53.268;8.764;2023-03-12T15:15:09;24.50;;;10.48;;
72791;SDS011;60907;53.268;8.764;2023-03-12T15:18:23;23.85;;;10.43;;
72791;SDS011;60907;53.268;8.764;2023-03-12T15:20:49;24.13;;;11.23;;
72791;SDS011;60907;53.268;8.764;2023-03-12T15:23:16;27.48;;;11.52;;
72791;SDS011;60907;53.268;8.764;2023-03-12T15:25:42;23.08;;;11.57;;
72791;SDS011;60907;53.268;8.764;2023-03-12T15:30:34;28.03;;;12.27;;
72791;SDS011;60907;53.268;8.764;2023-03-12T15:33:11;26.85;;;11.57;;
72791;SDS011;60907;53.268;8.764;2023-03-12T15:36:05;25.98;;;12.55;;
72791;SDS011;60907;53.268;8.764;2023-03-12T15:38:44;23.92;;;10.77;;
72791;SDS011;60907;53.268;8.764;2023-03-12T15:41:17;23.80;;;10.80;;
72791;SDS011;60907;53.268;8.764;2023-03-12T15:43:50;27.90;;;10.70;;
72791;SDS011;60907;53.268;8.764;2023-03-12T15:46:16;25.15;;;10.82;;
72791;SDS011;60907;53.268;8.764;2023-03-12T15:48:45;25.38;;;11.25;;
72791;SDS011;60907;53.268;8.764;2023-03-12T15:51:25;27.98;;;11.15;;
72791;SDS011;60907;53.268;8.764;2023-03-12T15:53:58;26.75;;;12.13;;
72791;SDS011;60907;53.268;8.764;2023-03-12T15:56:29;26.70;;;11.35;;
72791;SDS011;60907;53.268;8.764;2023-03-12T15:59:18;23.67;;;9.93;;
72791;SDS011;60907;53.268;8.764;2023-03-12T16:01:52;25.70;;;10.80;;
72791;SDS011;60907;53.268;8.764;2023-03-12T16:04:19;28.58;;;11.45;;
72791;SDS011;60907;53.268;8.764;2023-03-12T16:06:45;23.77;;;11.68;;
72791;SDS011;60907;53.268;8.764;2023-03-12T16:09:22;27.50;;;12.10;;
72791;SDS011;60907;53.268;8.764;2023-03-12T16:11:50;34.10;;;12.75;;
72791;SDS011;60907;53.268;8.764;2023-03-12T16:14:18;26.83;;;11.15;;
72791;SDS011;60907;53.268;8.764;2023-03-12T16:16:45;30.85;;;12.15;;
72791;SDS011;60907;53.268;8.764;2023-03-12T16:19:14;32.63;;;13.10;;
72791;SDS011;60907;53.268;8.764;2023-03-12T16:21:45;29.70;;;11.07;;
72791;SDS011;60907;53.268;8.764;2023-03-12T16:24:10;25.52;;;12.40;;
72791;SDS011;60907;53.268;8.764;2023-03-12T16:26:47;33.00;;;12.85;;
72791;SDS011;60907;53.268;8.764;2023-03-12T16:29:14;31.75;;;13.65;;
72791;SDS011;60907;53.268;8.764;2023-03-12T16:31:41;39.58;;;13.68;;
72791;SDS011;60907;53.268;8.764;2023-03-12T16:34:09;37.50;;;13.88;;
72791;SDS011;60907;53.268;8.764;2023-03-12T16:36:35;39.53;;;12.45;;